Time;durP1;ratioP1;P1;durP2;ratioP2;P2;SDS_P1;SDS_P2;PMS_P1;PMS_P2;Temp;Humidity;BMP_temperature;BMP_pressure;BME280_temperature;BME280_humidity;BME280_pressure;Samples;Min_cycle;Max_cycle;Signal;HPM_P1;HPM_P2
2023/09/12 00:00:36;;;;;;;7.17;2.77;;;;;;;;;;5045651;28;20048;-58
2023/09/12 00:03:02;;;;;;;4.20;2.80;;;;;;;;;;5044272;28;20061;-57
2023/09/12 00:05:27;;;;;;;5.32;2.80;;;;;;;;;;5046271;28;20765;-58
2023/09/12 00:07:53;;;;;;;7.07;2.77;;;;;;;;;;5042565;28;20105;-58
2023/09/12 00:10:18;;;;;;;6.15;2.63;;;;;;;;;;5044544;28;20418;-58
2023/09/12 00:12:44;;;;;;;5.82;2.65;;;;;;;;;;5038556;28;20040;-57
2023/09/12 00:15:09;;;;;;;4.40;2.60;;;;;;;;;;5044274;28;20033;-57
2023/09/12 00:17:34;;;;;;;6.30;3.10;;;;;;;;;;5025716;28;20372;-57
2023/09/12 00:19:59;;;;;;;5.23;2.63;;;;;;;;;;5045886;28;20060;-58
2023/09/12 00:22:25;;;;;;;5.40;2.90;;;;;;;;;;5039239;28;20064;-58
2023/09/12 00:24:50;;;;;;;6.80;3.00;;;;;;;;;;5035041;28;20073;-57
2023/09/12 00:27:15;;;;;;;5.13;2.83;;;;;;;;;;5026827;28;20064;-57
2023/09/12 00:29:40;;;;;;;7.67;3.23;;;;;;;;;;5032927;28;20345;-60
2023/09/12 00:32:05;;;;;;;5.53;2.90;;;;;;;;;;5041781;28;20310;-59
2023/09/12 00:34:31;;;;;;;4.70;2.85;;;;;;;;;;5044026;28;20784;-58
2023/09/12 00:36:56;;;;;;;4.10;2.50;;;;;;;;;;5045398;28;20053;-57
2023/09/12 00:39:21;;;;;;;5.90;2.78;;;;;;;;;;5046461;28;20557;-57
2023/09/12 00:41:46;;;;;;;3.60;2.83;;;;;;;;;;5045279;28;20053;-58
2023/09/12 00:44:12;;;;;;;5.73;2.50;;;;;;;;;;5042904;28;20285;-58
2023/09/12 00:46:37;;;;;;;5.45;2.63;;;;;;;;;;5046760;28;20298;-57
2023/09/12 00:49:03;;;;;;;4.63;2.53;;;;;;;;;;5043686;28;20029;-57
2023/09/12 00:51:28;;;;;;;7.00;2.70;;;;;;;;;;5044350;28;20263;-57
2023/09/12 00:53:55;;;;;;;7.10;2.63;;;;;;;;;;5038408;28;20069;-57
2023/09/12 00:56:20;;;;;;;3.78;2.75;;;;;;;;;;5044868;28;20276;-58
2023/09/12 00:58:46;;;;;;;6.93;2.90;;;;;;;;;;5046297;28;20646;-59
2023/09/12 01:01:11;;;;;;;6.18;2.78;;;;;;;;;;5045531;28;20687;-57
2023/09/12 01:03:36;;;;;;;4.07;2.40;;;;;;;;;;5039579;28;20029;-58
2023/09/12 01:06:01;;;;;;;3.83;2.33;;;;;;;;;;5043798;28;20291;-57
2023/09/12 01:08:27;;;;;;;4.73;2.40;;;;;;;;;;5036055;28;20662;-58
2023/09/12 01:10:52;;;;;;;5.25;2.70;;;;;;;;;;5040299;28;20366;-58
2023/09/12 01:13:18;;;;;;;7.28;2.20;;;;;;;;;;5021044;28;20033;-57
2023/09/12 01:15:43;;;;;;;7.30;2.53;;;;;;;;;;5044387;28;20459;-58
2023/09/12 01:18:08;;;;;;;5.45;2.60;;;;;;;;;;5040546;28;20303;-58
2023/09/12 01:20:53;;;;;;;3.20;2.10;;;;;;;;;;5027447;28;20036;-57
2023/09/12 01:23:27;;;;;;;3.78;2.67;;;;;;;;;;5042916;28;20167;-59
2023/09/12 01:25:53;;;;;;;4.68;2.28;;;;;;;;;;5043456;28;20037;-58
2023/09/12 01:28:18;;;;;;;5.23;2.23;;;;;;;;;;5036746;28;20105;-57
2023/09/12 01:30:44;;;;;;;2.93;2.00;;;;;;;;;;5035773;28;20033;-58
2023/09/12 01:33:10;;;;;;;4.97;2.58;;;;;;;;;;5031249;28;20382;-58
2023/09/12 01:35:35;;;;;;;4.57;2.35;;;;;;;;;;5040176;28;20130;-58
2023/09/12 01:38:00;;;;;;;5.03;2.40;;;;;;;;;;5035835;28;20499;-58
2023/09/12 01:40:33;;;;;;;4.03;2.60;;;;;;;;;;5042434;28;20814;-58
2023/09/12 01:42:58;;;;;;;4.45;2.25;;;;;;;;;;5037787;28;20295;-57
2023/09/12 01:45:24;;;;;;;5.27;2.60;;;;;;;;;;5026547;28;20412;-58
2023/09/12 01:47:49;;;;;;;3.43;2.20;;;;;;;;;;5044133;28;20495;-58
2023/09/12 01:50:14;;;;;;;3.57;2.40;;;;;;;;;;5045312;28;20640;-58
2023/09/12 01:52:40;;;;;;;4.28;2.47;;;;;;;;;;5040682;28;20620;-58
2023/09/12 01:55:07;;;;;;;6.28;2.58;;;;;;;;;;5039560;28;20049;-58
2023/09/12 01:57:32;;;;;;;5.40;2.28;;;;;;;;;;5043708;28;20040;-58
2023/09/12 01:59:57;;;;;;;4.72;2.40;;;;;;;;;;5032087;28;20443;-58
2023/09/12 02:02:23;;;;;;;4.90;2.77;;;;;;;;;;5044647;28;20514;-58
2023/09/12 02:04:59;;;;;;;6.73;2.63;;;;;;;;;;5038330;28;20831;-59
2023/09/12 02:07:24;;;;;;;3.90;2.55;;;;;;;;;;5043515;28;20282;-58
2023/09/12 02:09:49;;;;;;;4.15;2.55;;;;;;;;;;5042309;28;20021;-58
2023/09/12 02:12:14;;;;;;;3.67;2.30;;;;;;;;;;5044120;28;20083;-58
2023/09/12 02:14:40;;;;;;;5.43;2.53;;;;;;;;;;5038485;28;20268;-58
2023/09/12 02:17:05;;;;;;;5.03;2.40;;;;;;;;;;5032100;28;20033;-57
2023/09/12 02:19:30;;;;;;;4.93;2.40;;;;;;;;;;5024855;28;20339;-59
2023/09/12 02:21:55;;;;;;;6.40;2.70;;;;;;;;;;5022949;28;20342;-58
2023/09/12 02:24:21;;;;;;;6.25;2.38;;;;;;;;;;5038108;28;20846;-58
2023/09/12 02:26:46;;;;;;;6.50;2.60;;;;;;;;;;5044633;28;20024;-58
2023/09/12 02:29:12;;;;;;;5.88;2.40;;;;;;;;;;5044653;28;20547;-58
2023/09/12 02:31:37;;;;;;;6.33;2.93;;;;;;;;;;5044528;28;20013;-57
2023/09/12 02:34:02;;;;;;;5.80;2.30;;;;;;;;;;5037414;28;20272;-56
2023/09/12 02:36:28;;;;;;;5.73;2.60;;;;;;;;;;5046596;28;20267;-57
2023/09/12 02:38:53;;;;;;;4.70;2.50;;;;;;;;;;5048593;28;20780;-57
2023/09/12 02:41:18;;;;;;;4.17;2.60;;;;;;;;;;5045779;28;20021;-60
2023/09/12 02:43:43;;;;;;;5.07;2.70;;;;;;;;;;5048283;28;20259;-59
2023/09/12 02:46:09;;;;;;;4.57;2.70;;;;;;;;;;5048023;28;20255;-57
2023/09/12 02:48:34;;;;;;;3.77;2.40;;;;;;;;;;5048635;28;20099;-57
2023/09/12 02:50:59;;;;;;;4.77;2.90;;;;;;;;;;5047897;28;20279;-57
2023/09/12 02:53:24;;;;;;;4.67;2.60;;;;;;;;;;5045254;28;20857;-58
2023/09/12 02:55:51;;;;;;;4.20;2.40;;;;;;;;;;5045506;28;20838;-58
2023/09/12 02:58:16;;;;;;;4.70;2.67;;;;;;;;;;5048431;28;20020;-58
2023/09/12 03:00:41;;;;;;;6.33;2.30;;;;;;;;;;5048517;28;20032;-57
2023/09/12 03:03:07;;;;;;;4.57;2.97;;;;;;;;;;5048011;28;20299;-59
2023/09/12 03:05:32;;;;;;;5.10;2.38;;;;;;;;;;5041564;28;20029;-58
2023/09/12 03:07:57;;;;;;;5.23;2.80;;;;;;;;;;5047929;28;20028;-58
2023/09/12 03:10:22;;;;;;;5.70;2.80;;;;;;;;;;5047190;28;20828;-58
2023/09/12 03:12:47;;;;;;;5.20;2.50;;;;;;;;;;5048201;28;20421;-58
2023/09/12 03:15:13;;;;;;;5.20;2.77;;;;;;;;;;5045835;28;20356;-57
2023/09/12 03:17:38;;;;;;;5.33;2.77;;;;;;;;;;5047920;28;20025;-58
2023/09/12 03:20:07;;;;;;;4.60;2.80;;;;;;;;;;5047242;28;20255;-58
2023/09/12 03:22:37;;;;;;;6.03;2.73;;;;;;;;;;5047177;28;20044;-58
2023/09/12 03:25:02;;;;;;;4.70;2.75;;;;;;;;;;5041689;28;20255;-58
2023/09/12 03:27:27;;;;;;;4.63;2.40;;;;;;;;;;5033925;28;20041;-57
2023/09/12 03:29:53;;;;;;;5.43;2.97;;;;;;;;;;5028244;28;20029;-58
2023/09/12 03:32:18;;;;;;;5.23;2.80;;;;;;;;;;5041024;28;20120;-58
2023/09/12 03:34:43;;;;;;;4.67;2.83;;;;;;;;;;5046799;28;20116;-58
2023/09/12 03:37:08;;;;;;;4.57;2.65;;;;;;;;;;5046775;28;20125;-57
2023/09/12 03:39:34;;;;;;;4.97;2.90;;;;;;;;;;5047743;28;20037;-57
2023/09/12 03:41:59;;;;;;;6.38;2.92;;;;;;;;;;5047609;28;20787;-58
2023/09/12 03:44:24;;;;;;;3.83;2.50;;;;;;;;;;5042012;28;20150;-58
2023/09/12 03:46:49;;;;;;;4.83;2.70;;;;;;;;;;5046542;28;20263;-57
2023/09/12 03:49:14;;;;;;;3.83;2.70;;;;;;;;;;5047016;28;20270;-59
2023/09/12 03:51:40;;;;;;;4.80;2.60;;;;;;;;;;5045036;28;20123;-58
2023/09/12 03:54:05;;;;;;;4.20;2.53;;;;;;;;;;5029390;28;20121;-57
2023/09/12 03:56:31;;;;;;;4.68;2.65;;;;;;;;;;5043050;28;21324;-57
2023/09/12 03:58:57;;;;;;;3.92;2.50;;;;;;;;;;5028333;28;20116;-57
2023/09/12 04:01:23;;;;;;;5.60;2.80;;;;;;;;;;5042958;28;20124;-59
2023/09/12 04:03:48;;;;;;;5.72;2.95;;;;;;;;;;5046276;28;20584;-58
2023/09/12 04:06:13;;;;;;;4.63;2.80;;;;;;;;;;5037162;28;20091;-57
2023/09/12 04:08:38;;;;;;;7.90;2.70;;;;;;;;;;5044341;28;20382;-58
2023/09/12 04:11:03;;;;;;;5.37;2.97;;;;;;;;;;5046558;28;20149;-58
2023/09/12 04:13:29;;;;;;;4.90;2.73;;;;;;;;;;5046716;28;20271;-58
2023/09/12 04:15:54;;;;;;;5.35;3.05;;;;;;;;;;5040452;28;20102;-56
2023/09/12 04:18:19;;;;;;;5.40;3.10;;;;;;;;;;5045380;28;20354;-57
2023/09/12 04:20:44;;;;;;;6.57;2.90;;;;;;;;;;5025885;28;21116;-57
2023/09/12 04:23:10;;;;;;;6.33;3.00;;;;;;;;;;5024944;28;20283;-57
2023/09/12 04:25:35;;;;;;;4.97;2.67;;;;;;;;;;5039990;28;20298;-58
2023/09/12 04:28:00;;;;;;;5.10;2.83;;;;;;;;;;5046604;28;20286;-58
2023/09/12 04:30:25;;;;;;;4.97;3.03;;;;;;;;;;5047088;28;20033;-59
2023/09/12 04:32:51;;;;;;;5.03;3.10;;;;;;;;;;5040166;28;20116;-58
2023/09/12 04:35:17;;;;;;;4.33;2.83;;;;;;;;;;5031921;28;20102;-57
2023/09/12 04:37:42;;;;;;;6.15;3.17;;;;;;;;;;5017556;28;20585;-58
2023/09/12 04:40:08;;;;;;;6.80;3.10;;;;;;;;;;5027982;28;20029;-57
2023/09/12 04:42:33;;;;;;;6.07;3.45;;;;;;;;;;5045651;28;20304;-58
2023/09/12 04:44:59;;;;;;;7.03;3.33;;;;;;;;;;5038678;28;20151;-56
2023/09/12 04:47:24;;;;;;;5.18;3.00;;;;;;;;;;5045885;28;20267;-57
2023/09/12 04:49:49;;;;;;;6.30;3.27;;;;;;;;;;5045252;28;20029;-58
2023/09/12 04:52:14;;;;;;;6.97;3.23;;;;;;;;;;5041199;28;20276;-58
2023/09/12 04:54:40;;;;;;;7.35;3.40;;;;;;;;;;5041222;28;20045;-57
2023/09/12 04:57:05;;;;;;;6.07;3.03;;;;;;;;;;5037350;28;20055;-57
2023/09/12 04:59:30;;;;;;;8.00;3.25;;;;;;;;;;5035258;28;20494;-59
2023/09/12 05:01:56;;;;;;;6.75;3.10;;;;;;;;;;5030740;28;20052;-59
2023/09/12 05:04:22;;;;;;;7.45;3.05;;;;;;;;;;5013786;28;20037;-57
2023/09/12 05:06:47;;;;;;;5.73;3.13;;;;;;;;;;5034307;28;20422;-58
2023/09/12 05:09:13;;;;;;;7.13;3.30;;;;;;;;;;5033640;28;20313;-58
2023/09/12 05:11:38;;;;;;;6.28;3.40;;;;;;;;;;5045790;28;20037;-58
2023/09/12 05:14:03;;;;;;;7.07;3.23;;;;;;;;;;5045932;28;20032;-57
2023/09/12 05:16:29;;;;;;;6.85;3.67;;;;;;;;;;5043210;28;20795;-57
2023/09/12 05:18:54;;;;;;;9.88;4.20;;;;;;;;;;5046073;28;20079;-57
2023/09/12 05:21:20;;;;;;;6.25;4.00;;;;;;;;;;5044510;28;20045;-57
2023/09/12 05:23:45;;;;;;;6.00;3.53;;;;;;;;;;5032807;28;20034;-57
2023/09/12 05:26:10;;;;;;;6.37;3.63;;;;;;;;;;5033145;28;20279;-57
2023/09/12 05:28:35;;;;;;;8.17;4.10;;;;;;;;;;5044506;28;20287;-59
2023/09/12 05:31:01;;;;;;;6.07;3.80;;;;;;;;;;5045490;28;20713;-58
2023/09/12 05:33:26;;;;;;;9.10;3.90;;;;;;;;;;5026709;28;20295;-58
2023/09/12 05:35:51;;;;;;;9.00;3.93;;;;;;;;;;5030728;28;20048;-58
2023/09/12 05:38:16;;;;;;;7.53;4.30;;;;;;;;;;5044886;28;20398;-57
2023/09/12 05:40:41;;;;;;;8.73;4.33;;;;;;;;;;5045504;28;20288;-57
2023/09/12 05:43:07;;;;;;;7.30;3.88;;;;;;;;;;5043471;28;20295;-59
2023/09/12 05:45:32;;;;;;;9.63;4.20;;;;;;;;;;5042960;28;20398;-57
2023/09/12 05:47:58;;;;;;;9.07;4.45;;;;;;;;;;5043835;28;20421;-57
2023/09/12 05:50:23;;;;;;;8.13;4.63;;;;;;;;;;5045151;28;20045;-57
2023/09/12 05:52:48;;;;;;;9.10;4.43;;;;;;;;;;5044317;28;20036;-57
2023/09/12 05:55:14;;;;;;;9.17;4.60;;;;;;;;;;5036047;28;20423;-58
2023/09/12 05:57:39;;;;;;;9.30;4.85;;;;;;;;;;5037644;28;20282;-58
2023/09/12 06:00:05;;;;;;;9.83;4.83;;;;;;;;;;5042589;28;20040;-58
2023/09/12 06:02:32;;;;;;;11.82;5.10;;;;;;;;;;5043685;28;20313;-59
2023/09/12 06:04:58;;;;;;;12.32;5.57;;;;;;;;;;5043129;28;20063;-58
2023/09/12 06:07:23;;;;;;;11.17;5.63;;;;;;;;;;5040819;28;20071;-58
2023/09/12 06:09:48;;;;;;;10.97;5.07;;;;;;;;;;5031279;28;20033;-57
2023/09/12 06:12:13;;;;;;;14.60;5.53;;;;;;;;;;5031665;28;20047;-56
2023/09/12 06:14:38;;;;;;;9.70;5.10;;;;;;;;;;5030587;28;20046;-56
2023/09/12 06:17:04;;;;;;;10.50;5.33;;;;;;;;;;5033908;28;20038;-58
2023/09/12 06:19:29;;;;;;;11.57;5.83;;;;;;;;;;5030547;28;20380;-57
2023/09/12 06:21:55;;;;;;;8.37;5.37;;;;;;;;;;5031079;28;20051;-58
2023/09/12 06:24:21;;;;;;;10.32;5.97;;;;;;;;;;5036515;28;20310;-58
2023/09/12 06:26:46;;;;;;;11.60;5.57;;;;;;;;;;5032430;28;20448;-55
2023/09/12 06:29:11;;;;;;;12.05;5.95;;;;;;;;;;5033750;28;20116;-55
2023/09/12 06:31:37;;;;;;;12.85;5.60;;;;;;;;;;5031932;28;20092;-59
2023/09/12 06:34:02;;;;;;;10.00;5.55;;;;;;;;;;5029195;28;20033;-57
2023/09/12 06:36:30;;;;;;;10.40;5.40;;;;;;;;;;5031021;28;21566;-56
2023/09/12 06:38:56;;;;;;;12.32;5.22;;;;;;;;;;5029104;28;20037;-57
2023/09/12 06:41:21;;;;;;;12.77;4.68;;;;;;;;;;5029446;28;20059;-56
2023/09/12 06:43:46;;;;;;;10.13;5.25;;;;;;;;;;5032724;28;20032;-57
2023/09/12 06:46:12;;;;;;;8.87;4.80;;;;;;;;;;5031776;28;20025;-57
2023/09/12 06:48:37;;;;;;;9.80;4.87;;;;;;;;;;5028596;28;20296;-57
2023/09/12 06:51:06;;;;;;;10.33;5.03;;;;;;;;;;5030536;28;20683;-55
2023/09/12 06:53:31;;;;;;;9.73;5.10;;;;;;;;;;5039385;28;20318;-56
2023/09/12 06:55:57;;;;;;;10.37;5.10;;;;;;;;;;5035289;28;20477;-56
2023/09/12 06:58:22;;;;;;;9.18;4.90;;;;;;;;;;5030365;28;20684;-56
2023/09/12 07:00:48;;;;;;;10.27;4.43;;;;;;;;;;5031980;28;20178;-56
2023/09/12 07:03:13;;;;;;;7.50;4.50;;;;;;;;;;5036017;28;20128;-57
2023/09/12 07:05:39;;;;;;;10.47;4.27;;;;;;;;;;5031801;28;20316;-56
2023/09/12 07:08:05;;;;;;;8.82;4.60;;;;;;;;;;5031782;28;20197;-58
2023/09/12 07:10:30;;;;;;;10.05;4.47;;;;;;;;;;5035304;28;20044;-55
2023/09/12 07:12:55;;;;;;;9.60;4.30;;;;;;;;;;5031893;28;20041;-56
2023/09/12 07:15:21;;;;;;;5.53;3.77;;;;;;;;;;5032459;28;20041;-57
2023/09/12 07:17:46;;;;;;;9.05;4.47;;;;;;;;;;5032940;28;20288;-57
2023/09/12 07:20:12;;;;;;;9.70;4.18;;;;;;;;;;5031243;28;20366;-56
2023/09/12 07:22:38;;;;;;;8.47;4.30;;;;;;;;;;5036139;28;20259;-56
2023/09/12 07:25:04;;;;;;;6.05;4.20;;;;;;;;;;5036569;28;20025;-56
2023/09/12 07:27:29;;;;;;;8.43;4.20;;;;;;;;;;5035091;28;20041;-57
2023/09/12 07:29:54;;;;;;;13.38;4.45;;;;;;;;;;5033549;28;20022;-57
2023/09/12 07:32:21;;;;;;;9.13;4.38;;;;;;;;;;5034252;28;20526;-57
2023/09/12 07:34:48;;;;;;;10.70;4.15;;;;;;;;;;5038286;28;20041;-57
2023/09/12 07:37:13;;;;;;;8.27;3.88;;;;;;;;;;5036034;28;20033;-56
2023/09/12 07:39:39;;;;;;;8.82;3.83;;;;;;;;;;5034622;28;20266;-57
2023/09/12 07:42:04;;;;;;;9.77;4.43;;;;;;;;;;5035916;28;20066;-58
2023/09/12 07:44:29;;;;;;;7.93;3.92;;;;;;;;;;5033999;28;20740;-56
2023/09/12 07:46:54;;;;;;;6.83;3.70;;;;;;;;;;5032158;28;20033;-56
2023/09/12 07:49:20;;;;;;;11.53;3.43;;;;;;;;;;5016273;28;20146;-57
2023/09/12 07:51:45;;;;;;;6.03;3.60;;;;;;;;;;5032833;28;20041;-57
2023/09/12 07:54:10;;;;;;;7.87;3.87;;;;;;;;;;5033843;28;20067;-56
2023/09/12 07:56:35;;;;;;;7.07;3.37;;;;;;;;;;5039223;28;20378;-56
2023/09/12 07:59:01;;;;;;;6.57;3.30;;;;;;;;;;5040607;28;20303;-57
2023/09/12 08:01:27;;;;;;;9.87;3.80;;;;;;;;;;5042608;28;20641;-58
2023/09/12 08:03:52;;;;;;;11.27;3.67;;;;;;;;;;5037075;28;20302;-58
2023/09/12 08:06:17;;;;;;;9.73;3.92;;;;;;;;;;5039406;28;20037;-57
2023/09/12 08:08:43;;;;;;;6.55;3.42;;;;;;;;;;5037926;28;20041;-58
2023/09/12 08:11:08;;;;;;;9.33;3.47;;;;;;;;;;5039138;28;20033;-57
2023/09/12 08:13:33;;;;;;;5.93;3.23;;;;;;;;;;5033498;28;20839;-57
2023/09/12 08:15:59;;;;;;;9.07;3.53;;;;;;;;;;5033317;28;20367;-57
2023/09/12 08:18:28;;;;;;;8.65;3.25;;;;;;;;;;5034100;28;20284;-56
2023/09/12 08:20:54;;;;;;;9.98;3.78;;;;;;;;;;5032561;28;20579;-57
2023/09/12 08:23:19;;;;;;;7.13;3.00;;;;;;;;;;5033542;28;20572;-56
2023/09/12 08:25:44;;;;;;;7.70;3.50;;;;;;;;;;5033072;28;20052;-56
2023/09/12 08:28:09;;;;;;;8.27;3.50;;;;;;;;;;5034916;28;20029;-56
2023/09/12 08:30:35;;;;;;;7.00;3.00;;;;;;;;;;5032691;28;20284;-56
2023/09/12 08:33:03;;;;;;;7.83;3.13;;;;;;;;;;5036902;28;20088;-56
2023/09/12 08:35:28;;;;;;;8.60;3.33;;;;;;;;;;5033419;28;20656;-57
2023/09/12 08:37:53;;;;;;;7.90;3.43;;;;;;;;;;5032100;28;20033;-57
2023/09/12 08:40:18;;;;;;;8.03;3.70;;;;;;;;;;5030986;28;20917;-57
2023/09/12 08:42:44;;;;;;;6.40;3.27;;;;;;;;;;5032047;28;20715;-57
2023/09/12 08:45:13;;;;;;;6.75;3.25;;;;;;;;;;5020337;28;20299;-58
2023/09/12 08:47:39;;;;;;;7.30;3.70;;;;;;;;;;5031631;28;20203;-57
2023/09/12 08:50:04;;;;;;;7.22;3.10;;;;;;;;;;5036209;28;20480;-58
2023/09/12 08:52:29;;;;;;;8.60;3.58;;;;;;;;;;5010772;28;20052;-57
2023/09/12 08:54:55;;;;;;;7.53;3.17;;;;;;;;;;5031195;28;20068;-58
2023/09/12 08:57:20;;;;;;;9.17;3.27;;;;;;;;;;5035697;28;20121;-57
2023/09/12 08:59:47;;;;;;;5.23;2.83;;;;;;;;;;5031121;28;20045;-59
2023/09/12 09:02:12;;;;;;;7.93;3.60;;;;;;;;;;5031380;28;20056;-56
2023/09/12 09:04:38;;;;;;;6.85;3.38;;;;;;;;;;5030165;28;20041;-58
2023/09/12 09:07:03;;;;;;;6.97;2.78;;;;;;;;;;5030862;28;20044;-59
2023/09/12 09:09:28;;;;;;;7.53;3.20;;;;;;;;;;5031525;28;20036;-57
2023/09/12 09:11:54;;;;;;;9.17;2.90;;;;;;;;;;5035306;28;20287;-57
2023/09/12 09:14:19;;;;;;;8.63;3.47;;;;;;;;;;5029486;28;20045;-57
2023/09/12 09:16:44;;;;;;;6.87;3.20;;;;;;;;;;5031144;28;20056;-58
2023/09/12 09:19:10;;;;;;;5.70;3.03;;;;;;;;;;5034230;28;20033;-57
2023/09/12 09:21:36;;;;;;;6.43;2.95;;;;;;;;;;5030652;28;20178;-58
2023/09/12 09:24:03;;;;;;;5.85;3.10;;;;;;;;;;5031197;28;20136;-58
2023/09/12 09:26:50;;;;;;;5.72;2.42;;;;;;;;;;5031020;28;20060;-59
2023/09/12 09:29:16;;;;;;;6.13;2.67;;;;;;;;;;5029144;28;20041;-59
2023/09/12 09:31:41;;;;;;;5.07;2.67;;;;;;;;;;5030550;28;20505;-59
2023/09/12 09:34:11;;;;;;;7.53;2.90;;;;;;;;;;5031288;28;20040;-58
2023/09/12 09:36:36;;;;;;;5.70;2.90;;;;;;;;;;5034815;28;20033;-58
2023/09/12 09:39:04;;;;;;;5.47;2.47;;;;;;;;;;5030403;28;20034;-57
2023/09/12 09:41:29;;;;;;;9.00;2.97;;;;;;;;;;5028391;28;20073;-58
2023/09/12 09:43:54;;;;;;;4.83;2.43;;;;;;;;;;5027684;28;20067;-57
2023/09/12 09:46:20;;;;;;;8.27;2.60;;;;;;;;;;5028484;28;20037;-57
2023/09/12 09:48:48;;;;;;;7.35;2.65;;;;;;;;;;5029485;28;20388;-56
2023/09/12 09:51:13;;;;;;;8.80;2.75;;;;;;;;;;5029436;28;20047;-56
2023/09/12 09:53:39;;;;;;;8.63;2.80;;;;;;;;;;5034253;28;20033;-57
2023/09/12 09:56:09;;;;;;;6.90;2.78;;;;;;;;;;5032902;28;20116;-56
2023/09/12 09:58:34;;;;;;;;;;;;;;;;;;5014530;28;20504;-57
2023/09/12 10:01:00;;;;;;;6.05;2.70;;;;;;;;;;5031521;28;20304;-58
2023/09/12 10:03:25;;;;;;;6.65;2.50;;;;;;;;;;5031815;28;20053;-56
2023/09/12 10:05:50;;;;;;;9.35;2.75;;;;;;;;;;5030018;28;20581;-57
2023/09/12 10:08:17;;;;;;;5.20;2.58;;;;;;;;;;5029437;28;20506;-58
2023/09/12 10:10:42;;;;;;;4.78;2.40;;;;;;;;;;5032371;28;20037;-58
2023/09/12 10:13:07;;;;;;;8.20;2.57;;;;;;;;;;5030235;28;20492;-57
2023/09/12 10:15:32;;;;;;;3.63;2.10;;;;;;;;;;5034367;28;20406;-57
2023/09/12 10:17:59;;;;;;;5.30;2.17;;;;;;;;;;5018762;28;20531;-56
2023/09/12 10:20:25;;;;;;;6.50;2.47;;;;;;;;;;5030005;28;20299;-57
2023/09/12 10:22:52;;;;;;;6.70;2.80;;;;;;;;;;5029944;28;20053;-58
2023/09/12 10:25:17;;;;;;;5.45;2.60;;;;;;;;;;5028310;28;20020;-58
2023/09/12 10:27:42;;;;;;;3.90;2.07;;;;;;;;;;5029631;28;20030;-58
2023/09/12 10:30:08;;;;;;;7.47;2.33;;;;;;;;;;5030185;28;20397;-57
2023/09/12 10:32:33;;;;;;;7.82;2.65;;;;;;;;;;5017194;28;20107;-58
2023/09/12 10:34:58;;;;;;;5.10;2.40;;;;;;;;;;5028221;28;20025;-57
2023/09/12 10:37:24;;;;;;;6.93;2.38;;;;;;;;;;5029812;28;20366;-57
2023/09/12 10:39:49;;;;;;;3.43;2.17;;;;;;;;;;5028245;28;20092;-57
2023/09/12 10:42:14;;;;;;;4.85;2.13;;;;;;;;;;5029596;28;20033;-57
2023/09/12 10:44:39;;;;;;;5.47;2.43;;;;;;;;;;5030070;28;20021;-58
2023/09/12 10:47:04;;;;;;;5.33;2.20;;;;;;;;;;5028263;28;20474;-57
2023/09/12 10:49:30;;;;;;;4.93;2.30;;;;;;;;;;5031665;28;20587;-57
2023/09/12 10:51:55;;;;;;;5.28;2.10;;;;;;;;;;5033332;28;20282;-57
2023/09/12 10:54:24;;;;;;;7.22;2.38;;;;;;;;;;5030486;28;20536;-59
2023/09/12 10:57:22;;;;;;;5.68;2.70;;;;;;;;;;5028868;28;20086;-58
2023/09/12 10:59:59;;;;;;;6.70;2.60;;;;;;;;;;5003064;28;20493;-58
2023/09/12 11:02:29;;;;;;;4.90;2.42;;;;;;;;;;5033707;28;20167;-58
2023/09/12 11:04:54;;;;;;;;;;;;;;;;;;5032014;28;20152;-58
2023/09/12 11:07:35;;;;;;;3.67;2.00;;;;;;;;;;5034380;28;20074;-59
2023/09/12 11:10:12;;;;;;;5.65;2.63;;;;;;;;;;5031151;28;20068;-60
2023/09/12 11:12:38;;;;;;;3.78;2.20;;;;;;;;;;5033061;28;20037;-59
2023/09/12 11:15:05;;;;;;;4.43;2.50;;;;;;;;;;5038219;28;20197;-58
2023/09/12 11:17:30;;;;;;;4.80;2.10;;;;;;;;;;5034569;28;20544;-59
2023/09/12 11:19:56;;;;;;;6.53;2.47;;;;;;;;;;5037694;28;20174;-59
2023/09/12 11:22:24;;;;;;;5.25;2.20;;;;;;;;;;5036885;28;20148;-59
2023/09/12 11:24:49;;;;;;;6.10;2.35;;;;;;;;;;5032935;28;20037;-59
2023/09/12 11:27:14;;;;;;;7.37;2.27;;;;;;;;;;5033462;28;20072;-58
2023/09/12 11:29:40;;;;;;;5.13;2.40;;;;;;;;;;5030196;28;20990;-57
2023/09/12 11:32:05;;;;;;;4.80;2.40;;;;;;;;;;5034068;28;20502;-58
2023/09/12 11:34:41;;;;;;;6.60;2.58;;;;;;;;;;5032757;28;20287;-60
2023/09/12 11:37:06;;;;;;;5.90;2.40;;;;;;;;;;5034705;28;20033;-58
2023/09/12 11:39:35;;;;;;;4.80;2.70;;;;;;;;;;5033789;28;20407;-60
2023/09/12 11:42:22;;;;;;;4.30;2.58;;;;;;;;;;5034656;28;20060;-59
2023/09/12 11:44:48;;;;;;;5.13;2.20;;;;;;;;;;5033271;28;20421;-58
2023/09/12 11:47:13;;;;;;;4.43;2.42;;;;;;;;;;5033487;28;20347;-58
2023/09/12 11:49:39;;;;;;;4.20;2.10;;;;;;;;;;5035807;28;20596;-59
2023/09/12 11:52:07;;;;;;;6.28;2.25;;;;;;;;;;5032551;28;20287;-57
2023/09/12 11:54:32;;;;;;;6.93;2.30;;;;;;;;;;5032448;28;20048;-58
2023/09/12 11:56:59;;;;;;;4.03;2.23;;;;;;;;;;5033482;28;20474;-60
2023/09/12 11:59:25;;;;;;;4.60;2.30;;;;;;;;;;5036802;28;20360;-59
2023/09/12 12:01:50;;;;;;;5.65;2.47;;;;;;;;;;5031654;28;20057;-58
2023/09/12 12:04:15;;;;;;;6.13;2.60;;;;;;;;;;5029903;28;20052;-60
2023/09/12 12:06:41;;;;;;;4.00;2.00;;;;;;;;;;5035980;28;20037;-58
2023/09/12 12:09:06;;;;;;;4.22;2.30;;;;;;;;;;5034436;28;20040;-57
2023/09/12 12:11:32;;;;;;;5.57;2.60;;;;;;;;;;5033818;28;20489;-58
2023/09/12 12:13:57;;;;;;;6.40;2.17;;;;;;;;;;5036605;28;21727;-57
2023/09/12 12:16:22;;;;;;;6.97;2.33;;;;;;;;;;5036218;28;20252;-57
2023/09/12 12:18:48;;;;;;;4.40;1.95;;;;;;;;;;5036423;28;20030;-57
2023/09/12 12:21:13;;;;;;;5.07;2.17;;;;;;;;;;5031444;28;20393;-57
2023/09/12 12:23:39;;;;;;;4.45;2.03;;;;;;;;;;5032085;28;20194;-56
2023/09/12 12:26:10;;;;;;;5.90;2.60;;;;;;;;;;5032750;28;20478;-57
2023/09/12 12:28:35;;;;;;;4.78;2.22;;;;;;;;;;5031995;28;20028;-57
2023/09/12 12:31:01;;;;;;;3.47;2.20;;;;;;;;;;5028509;28;20024;-58
2023/09/12 12:33:27;;;;;;;3.83;2.10;;;;;;;;;;5031552;28;20021;-56
2023/09/12 12:36:04;;;;;;;3.67;2.20;;;;;;;;;;5032497;28;20036;-56
2023/09/12 12:38:36;;;;;;;5.18;2.40;;;;;;;;;;5029864;28;20026;-56
2023/09/12 12:41:01;;;;;;;3.78;2.15;;;;;;;;;;5031435;28;20041;-57
2023/09/12 12:43:27;;;;;;;4.43;2.53;;;;;;;;;;5031315;28;20041;-57
2023/09/12 12:45:57;;;;;;;6.07;2.30;;;;;;;;;;5032037;28;20037;-56
2023/09/12 12:48:32;;;;;;;4.10;2.30;;;;;;;;;;5032098;28;20039;-57
2023/09/12 12:50:57;;;;;;;4.03;2.60;;;;;;;;;;5035783;28;20044;-57
2023/09/12 12:53:41;;;;;;;5.47;2.50;;;;;;;;;;5032645;28;20041;-58
2023/09/12 12:56:06;;;;;;;6.85;2.75;;;;;;;;;;5035986;28;20063;-56
2023/09/12 12:58:31;;;;;;;5.60;2.50;;;;;;;;;;5032383;28;20553;-57
2023/09/12 13:00:57;;;;;;;5.27;2.50;;;;;;;;;;5032141;28;20419;-58
2023/09/12 13:03:22;;;;;;;5.03;2.20;;;;;;;;;;5031983;28;20300;-56
2023/09/12 13:05:47;;;;;;;5.57;2.37;;;;;;;;;;5032433;28;20041;-58
2023/09/12 13:08:12;;;;;;;4.13;1.97;;;;;;;;;;5030073;28;20843;-58
2023/09/12 13:10:38;;;;;;;5.10;2.70;;;;;;;;;;5031345;28;20771;-57
2023/09/12 13:13:04;;;;;;;5.03;2.50;;;;;;;;;;5029699;28;20461;-57
2023/09/12 13:15:29;;;;;;;6.80;2.25;;;;;;;;;;5036553;28;20044;-58
2023/09/12 13:17:54;;;;;;;5.32;2.75;;;;;;;;;;5030040;28;20461;-58
2023/09/12 13:20:19;;;;;;;8.50;2.47;;;;;;;;;;5031106;28;20037;-58
2023/09/12 13:22:45;;;;;;;8.53;2.83;;;;;;;;;;5031909;28;21729;-59
2023/09/12 13:25:10;;;;;;;6.72;2.50;;;;;;;;;;5034408;28;20063;-58
2023/09/12 13:27:35;;;;;;;8.50;2.50;;;;;;;;;;5030365;28;20045;-58
2023/09/12 13:30:00;;;;;;;7.27;2.50;;;;;;;;;;5031740;28;20068;-59
2023/09/12 13:32:26;;;;;;;7.50;2.85;;;;;;;;;;5030667;28;20049;-61
2023/09/12 13:34:52;;;;;;;5.45;2.50;;;;;;;;;;5016840;28;20051;-60
2023/09/12 13:37:18;;;;;;;6.63;2.75;;;;;;;;;;5030433;28;20050;-59
2023/09/12 13:39:48;;;;;;;6.00;2.33;;;;;;;;;;5034173;28;20125;-58
2023/09/12 13:42:14;;;;;;;7.40;2.38;;;;;;;;;;5028684;28;20136;-57
2023/09/12 13:44:39;;;;;;;5.97;2.55;;;;;;;;;;5028978;28;20479;-58
2023/09/12 13:47:04;;;;;;;6.45;2.15;;;;;;;;;;5029147;28;20037;-57
2023/09/12 13:49:30;;;;;;;4.70;2.50;;;;;;;;;;5031016;28;20061;-58
2023/09/12 13:51:55;;;;;;;4.18;2.33;;;;;;;;;;5031425;28;20037;-60
2023/09/12 13:54:21;;;;;;;4.03;2.50;;;;;;;;;;5030683;28;20042;-58
2023/09/12 13:56:46;;;;;;;4.35;2.28;;;;;;;;;;5036453;28;20353;-59
2023/09/12 13:59:11;;;;;;;6.47;2.20;;;;;;;;;;5042752;28;20548;-58
2023/09/12 14:01:37;;;;;;;5.72;2.40;;;;;;;;;;5039794;28;20335;-58
2023/09/12 14:04:02;;;;;;;4.53;2.30;;;;;;;;;;5040188;28;20056;-60
2023/09/12 14:06:28;;;;;;;6.75;2.65;;;;;;;;;;5034996;28;20033;-57
2023/09/12 14:08:53;;;;;;;4.75;2.45;;;;;;;;;;5041232;28;20523;-59
2023/09/12 14:11:18;;;;;;;5.23;2.27;;;;;;;;;;5037470;28;20047;-57
2023/09/12 14:13:43;;;;;;;5.03;2.07;;;;;;;;;;5048537;28;20433;-58
2023/09/12 14:16:09;;;;;;;4.80;2.50;;;;;;;;;;5039984;28;20573;-57
2023/09/12 14:18:34;;;;;;;4.68;2.03;;;;;;;;;;5041706;28;20490;-58
2023/09/12 14:20:59;;;;;;;4.80;2.10;;;;;;;;;;5035482;28;20044;-58
2023/09/12 14:23:24;;;;;;;4.25;2.10;;;;;;;;;;5041612;28;20045;-58
2023/09/12 14:25:50;;;;;;;4.35;1.85;;;;;;;;;;5043156;28;20029;-58
2023/09/12 14:28:15;;;;;;;6.25;2.38;;;;;;;;;;5042973;28;20076;-58
2023/09/12 14:30:44;;;;;;;3.27;2.00;;;;;;;;;;5040253;28;20042;-59
2023/09/12 14:33:09;;;;;;;4.93;2.60;;;;;;;;;;5040658;28;20040;-57
2023/09/12 14:35:36;;;;;;;6.07;2.10;;;;;;;;;;5044850;28;20033;-57